createdAt,value
2022-12-07T00:01:52.041Z,21.88
2022-12-07T00:06:54.266Z,23.95
2022-12-07T00:11:55.945Z,22.92
2022-12-07T00:16:57.753Z,22.38
2022-12-07T00:21:59.423Z,23.92
2022-12-07T00:27:01.078Z,22.88
2022-12-07T00:32:02.725Z,26.58
2022-12-07T00:37:04.326Z,24.83
2022-12-07T00:42:05.905Z,25.75
2022-12-07T00:47:07.508Z,25.05
2022-12-07T00:52:09.135Z,26.02
2022-12-07T00:57:10.760Z,26.33
2022-12-07T01:02:12.355Z,23.77
2022-12-07T01:07:15.249Z,26.58
2022-12-07T01:12:16.838Z,21.35
2022-12-07T01:17:18.419Z,23.95
2022-12-07T01:22:20.388Z,26.83
2022-12-07T01:27:22.007Z,24.77
2022-12-07T01:32:23.599Z,24.35
2022-12-07T01:37:25.249Z,22.02
2022-12-07T01:42:27.063Z,20.02
2022-12-07T01:47:29.478Z,21.88
2022-12-07T01:52:34.025Z,23.30
2022-12-07T01:57:40.864Z,22.35
2022-12-07T02:02:52.285Z,25.10
2022-12-07T02:07:57.730Z,19.73
2022-12-07T02:13:24.005Z,21.35
2022-12-07T02:18:38.718Z,21.58
2022-12-07T02:24:17.480Z,20.45
2022-12-07T02:29:48.946Z,23.40
2022-12-07T02:35:07.044Z,24.65
2022-12-07T02:40:30.639Z,24.80
2022-12-07T02:45:35.185Z,21.55
2022-12-07T02:50:36.851Z,20.35
2022-12-07T02:55:42.498Z,23.15
2022-12-07T03:01:12.053Z,23.73
2022-12-07T03:06:32.701Z,29.55
2022-12-07T03:11:49.230Z,22.37
2022-12-07T03:16:57.715Z,23.63
2022-12-07T03:22:06.641Z,27.50
2022-12-07T03:27:17.349Z,26.58
2022-12-07T03:32:44.526Z,27.35
2022-12-07T03:38:01.221Z,26.92
2022-12-07T03:43:04.586Z,26.80
2022-12-07T03:48:16.833Z,29.27
2022-12-07T03:53:30.606Z,26.63
2022-12-07T03:58:33.846Z,24.38
2022-12-07T04:03:35.418Z,26.83
2022-12-07T04:08:37.051Z,28.65
2022-12-07T04:13:58.597Z,26.45
2022-12-07T04:19:00.175Z,29.73
2022-12-07T04:24:01.785Z,25.55
2022-12-07T04:29:07.575Z,27.25
2022-12-07T04:34:10.257Z,25.33
2022-12-07T04:39:45.793Z,26.45
2022-12-07T04:44:47.387Z,24.60
2022-12-07T04:49:48.980Z,27.05
2022-12-07T04:54:50.617Z,21.17
2022-12-07T04:59:52.200Z,30.25
2022-12-07T05:04:53.790Z,27.55
2022-12-07T05:09:55.375Z,29.38
2022-12-07T05:14:56.986Z,25.27
2022-12-07T05:19:58.628Z,26.05
2022-12-07T05:25:00.490Z,25.67
2022-12-07T05:30:02.345Z,29.02
2022-12-07T05:35:04.406Z,27.55
2022-12-07T05:40:06.746Z,24.13
2022-12-07T05:45:09.592Z,25.77
2022-12-07T05:50:11.318Z,24.63
2022-12-07T05:55:12.925Z,35.83
2022-12-07T06:00:15.100Z,58.45
2022-12-07T06:05:16.796Z,42.10
2022-12-07T06:10:18.379Z,26.75
2022-12-07T06:15:19.968Z,30.25
2022-12-07T06:20:21.568Z,27.60
2022-12-07T06:25:23.154Z,29.67
2022-12-07T06:30:24.734Z,23.42
2022-12-07T06:35:26.354Z,24.17
2022-12-07T06:40:27.962Z,19.55
2022-12-07T06:45:29.620Z,23.73
2022-12-07T06:50:31.275Z,24.15
2022-12-07T06:55:32.944Z,22.75
2022-12-07T07:00:36.084Z,24.90
2022-12-07T07:05:37.870Z,25.30
2022-12-07T07:10:39.621Z,22.02
2022-12-07T07:15:41.257Z,21.63
2022-12-07T07:20:42.910Z,21.88
2022-12-07T07:25:45.470Z,21.92
2022-12-07T07:30:47.230Z,23.17
2022-12-07T07:35:48.897Z,18.65
2022-12-07T07:40:50.604Z,18.80
2022-12-07T07:45:52.265Z,19.30
2022-12-07T07:50:53.950Z,15.07
2022-12-07T07:55:55.776Z,14.57
2022-12-07T08:00:57.640Z,16.15
2022-12-07T08:05:59.458Z,14.43
2022-12-07T08:11:02.719Z,17.02
2022-12-07T08:16:06.472Z,15.93
2022-12-07T08:21:11.951Z,19.38
2022-12-07T08:26:16.192Z,22.30
2022-12-07T08:31:19.309Z,16.52
2022-12-07T08:36:22.700Z,17.88
2022-12-07T08:41:24.350Z,20.98
2022-12-07T08:46:46.867Z,20.05
2022-12-07T08:51:49.040Z,17.67
2022-12-07T08:56:58.489Z,15.18
2022-12-07T09:02:00.615Z,14.50
2022-12-07T09:07:02.497Z,15.07
2022-12-07T09:12:04.511Z,11.80
2022-12-07T09:17:08.352Z,16.02
2022-12-07T09:22:09.994Z,12.57
2022-12-07T09:27:11.627Z,13.15
2022-12-07T09:32:13.293Z,13.93
2022-12-07T09:37:14.974Z,17.13
2022-12-07T09:42:30.880Z,16.80
2022-12-07T09:47:35.073Z,14.68
2022-12-07T09:52:39.317Z,18.63
2022-12-07T09:57:41.176Z,17.90
2022-12-07T10:02:48.668Z,20.30
2022-12-07T10:07:51.339Z,20.27
2022-12-07T10:13:13.924Z,15.40
2022-12-07T10:18:30.694Z,20.70
2022-12-07T10:23:32.338Z,15.23
2022-12-07T10:28:41.900Z,14.50
2022-12-07T10:33:52.249Z,19.20
2022-12-07T10:39:15.903Z,13.95
2022-12-07T10:44:27.230Z,10.38
2022-12-07T10:49:37.451Z,10.60
2022-12-07T10:55:06.860Z,10.57
2022-12-07T11:00:28.884Z,9.63
2022-12-07T11:05:43.510Z,11.13
2022-12-07T11:10:54.191Z,11.10
2022-12-07T11:16:20.429Z,10.68
2022-12-07T11:21:31.655Z,11.55
2022-12-07T11:26:59.183Z,8.85
2022-12-07T11:32:07.703Z,7.80
2022-12-07T11:37:15.120Z,10.55
2022-12-07T11:42:27.459Z,7.97
2022-12-07T11:47:37.891Z,9.60
2022-12-07T11:53:01.153Z,12.00
2022-12-07T11:58:23.203Z,7.97
2022-12-07T12:03:34.993Z,8.60
2022-12-07T12:19:39.307Z,14.25
2022-12-07T12:24:42.772Z,11.32
2022-12-07T12:29:45.096Z,9.48
2022-12-07T12:34:50.973Z,9.88
2022-12-07T12:40:17.445Z,5.90
2022-12-07T12:45:33.027Z,6.45
2022-12-07T12:50:39.224Z,8.50
2022-12-07T12:55:43.853Z,9.27
2022-12-07T13:00:47.278Z,6.93
2022-12-07T13:05:49.374Z,7.20
2022-12-07T13:10:52.274Z,6.75
2022-12-07T13:16:08.945Z,8.43
2022-12-07T13:21:10.607Z,6.57
2022-12-07T13:26:19.989Z,5.57
2022-12-07T13:31:33.736Z,6.43
2022-12-07T13:36:45.981Z,10.18
2022-12-07T13:41:52.701Z,34.47
2022-12-07T13:47:06.493Z,11.75
2022-12-07T13:52:14.372Z,11.23
2022-12-07T13:57:19.661Z,13.90
2022-12-07T14:02:33.737Z,13.43
2022-12-07T14:07:37.696Z,10.60
2022-12-07T14:12:39.427Z,24.08
2022-12-07T14:17:53.339Z,30.67
2022-12-07T14:22:59.417Z,22.08
2022-12-07T14:28:02.300Z,15.55
2022-12-07T14:33:05.867Z,10.90
2022-12-07T14:38:08.813Z,10.23
2022-12-07T14:43:13.850Z,6.40
2022-12-07T14:53:42.739Z,6.43
2022-12-07T14:58:44.350Z,8.15
2022-12-07T15:03:46.051Z,8.65
2022-12-07T15:08:48.060Z,6.25
2022-12-07T15:14:08.118Z,11.18
2022-12-07T15:19:30.834Z,15.50
2022-12-07T15:24:32.575Z,16.33
2022-12-07T15:29:34.185Z,12.75
2022-12-07T15:34:39.972Z,9.90
2022-12-07T15:39:42.139Z,10.65
2022-12-07T15:45:02.646Z,24.05
2022-12-07T15:50:07.533Z,13.20
2022-12-07T15:55:11.035Z,16.27
2022-12-07T16:00:13.600Z,17.15
2022-12-07T16:05:15.361Z,16.13
2022-12-07T16:10:17.199Z,22.50
2022-12-07T16:15:22.955Z,16.83
2022-12-07T16:20:26.602Z,13.75
2022-12-07T16:25:28.430Z,17.88
2022-12-07T16:30:30.106Z,22.30
2022-12-07T16:35:32.201Z,20.63
2022-12-07T16:40:34.179Z,14.30
2022-12-07T16:45:38.380Z,18.73
2022-12-07T16:50:46.655Z,17.80
2022-12-07T17:00:53.132Z,24.20
2022-12-07T17:05:55.073Z,15.95
2022-12-07T17:10:57.861Z,11.32
2022-12-07T17:16:11.210Z,12.88
2022-12-07T17:21:14.208Z,17.27
2022-12-07T17:26:19.663Z,15.52
2022-12-07T17:31:24.015Z,19.48
2022-12-07T17:36:29.198Z,13.05
2022-12-07T17:41:50.043Z,16.30
2022-12-07T17:46:59.859Z,16.10
2022-12-07T17:52:20.272Z,12.15
2022-12-07T17:57:22.336Z,8.88
2022-12-07T18:02:24.007Z,11.23
2022-12-07T18:07:25.673Z,15.32
2022-12-07T18:12:27.413Z,10.75
2022-12-07T18:17:29.304Z,10.90
2022-12-07T18:22:31.142Z,9.85
2022-12-07T18:27:32.737Z,14.48
2022-12-07T18:32:34.441Z,9.73
2022-12-07T18:37:36.160Z,11.00
2022-12-07T18:42:38.143Z,9.02
2022-12-07T18:47:40.012Z,13.80
2022-12-07T18:52:42.294Z,13.25
2022-12-07T18:57:45.918Z,9.38
2022-12-07T19:02:47.850Z,18.45
2022-12-07T19:07:51.910Z,9.88
2022-12-07T19:12:54.110Z,10.10
2022-12-07T19:17:56.179Z,13.65
2022-12-07T19:22:57.758Z,9.68
2022-12-07T19:28:00.250Z,10.38
2022-12-07T19:33:01.856Z,11.77
2022-12-07T19:38:04.010Z,11.05
2022-12-07T19:43:07.348Z,11.07
2022-12-07T19:48:09.465Z,9.32
2022-12-07T19:53:11.920Z,11.88
2022-12-07T19:58:14.454Z,12.60
2022-12-07T20:03:16.116Z,14.00
2022-12-07T20:08:18.316Z,15.73
2022-12-07T20:13:31.250Z,20.02
2022-12-07T20:18:34.041Z,15.85
2022-12-07T20:23:35.644Z,13.43
2022-12-07T20:28:38.034Z,11.95
2022-12-07T20:33:40.489Z,10.95
2022-12-07T20:38:43.531Z,10.93
2022-12-07T20:43:45.162Z,11.43
2022-12-07T20:48:46.970Z,11.50
2022-12-07T20:53:49.211Z,16.75
2022-12-07T20:58:51.141Z,15.75
2022-12-07T21:03:57.072Z,16.02
2022-12-07T21:09:00.932Z,11.68
2022-12-07T21:14:02.538Z,12.90
2022-12-07T21:19:04.720Z,12.27
2022-12-07T21:24:08.197Z,12.50
2022-12-07T21:29:09.972Z,17.33
2022-12-07T21:34:11.566Z,13.82
2022-12-07T21:39:13.154Z,15.15
2022-12-07T21:44:14.741Z,14.43
2022-12-07T21:49:17.383Z,15.85
2022-12-07T21:54:22.897Z,12.85
2022-12-07T21:59:27.333Z,12.80
2022-12-07T22:04:29.020Z,18.35
2022-12-07T22:09:30.783Z,20.67
2022-12-07T22:14:51.047Z,25.27
2022-12-07T22:19:52.621Z,28.30
2022-12-07T22:24:54.271Z,21.67
2022-12-07T22:29:55.903Z,19.33
2022-12-07T22:34:57.476Z,21.92
2022-12-07T22:39:59.154Z,19.73
2022-12-07T22:45:00.905Z,20.17
2022-12-07T22:50:05.370Z,19.45
2022-12-07T22:55:08.005Z,21.58
2022-12-07T23:00:10.029Z,17.08
2022-12-07T23:05:12.194Z,19.77
2022-12-07T23:10:13.806Z,20.55
2022-12-07T23:15:15.588Z,18.05
2022-12-07T23:20:17.525Z,16.83
2022-12-07T23:25:19.137Z,17.48
2022-12-07T23:30:20.732Z,17.95
2022-12-07T23:35:22.362Z,22.42
2022-12-07T23:40:24.006Z,25.50
2022-12-07T23:45:25.638Z,24.55
2022-12-07T23:50:27.226Z,17.45
2022-12-07T23:55:28.904Z,19.08
